Time;durP1;ratioP1;P1;durP2;ratioP2;P2;SDS_P1;SDS_P2;PMS_P1;PMS_P2;Temp;Humidity;BMP_temperature;BMP_pressure;BME280_temperature;BME280_humidity;BME280_pressure;Samples;Min_cycle;Max_cycle;Signal;HPM_P1;HPM_P2
2022/08/20 00:02:15;;;;;;;13.88;10.00;;;;;;;21.84;100.00;99604.44;5113867;28;20047;-73
2022/08/20 00:04:45;;;;;;;18.70;10.10;;;;;;;21.85;100.00;99617.81;5095784;28;20047;-72
2022/08/20 00:07:14;;;;;;;14.07;10.05;;;;;;;22.07;100.00;99628.88;5113587;28;20122;-74
2022/08/20 00:09:43;;;;;;;16.33;9.23;;;;;;;22.17;100.00;99629.50;5113639;28;20044;-73
2022/08/20 00:12:15;;;;;;;14.48;9.40;;;;;;;22.04;100.00;99631.94;5113542;28;20505;-73
2022/08/20 00:14:44;;;;;;;18.95;9.07;;;;;;;22.02;100.00;99634.84;5114015;28;20448;-72
2022/08/20 00:17:12;;;;;;;13.77;9.30;;;;;;;22.16;100.00;99634.06;5095189;28;20075;-71
2022/08/20 00:19:40;;;;;;;16.17;9.27;;;;;;;22.02;100.00;99634.00;5095503;28;20074;-73
2022/08/20 00:22:10;;;;;;;16.30;9.05;;;;;;;22.18;100.00;99634.72;5113251;28;20082;-73
2022/08/20 00:24:38;;;;;;;17.10;9.05;;;;;;;21.97;100.00;99640.81;5113551;28;20484;-73
2022/08/20 00:27:06;;;;;;;17.70;8.45;;;;;;;22.13;100.00;99626.31;5112055;28;20043;-74
2022/08/20 00:29:34;;;;;;;12.63;8.45;;;;;;;21.88;100.00;99628.31;5113744;28;20407;-74
2022/08/20 00:32:03;;;;;;;17.08;8.98;;;;;;;21.93;100.00;99638.66;5113509;28;20078;-75
2022/08/20 00:34:31;;;;;;;15.43;8.52;;;;;;;21.90;100.00;99622.69;5095421;28;20472;-73
2022/08/20 00:36:59;;;;;;;12.90;8.45;;;;;;;21.98;100.00;99622.63;5113060;28;20048;-74
2022/08/20 00:39:29;;;;;;;12.40;8.35;;;;;;;22.04;100.00;99619.22;5113219;28;20454;-74
2022/08/20 00:41:58;;;;;;;14.27;8.38;;;;;;;22.02;100.00;99628.56;5112757;28;20039;-74
2022/08/20 00:44:26;;;;;;;15.63;8.80;;;;;;;21.98;100.00;99636.22;5113244;28;20047;-73
2022/08/20 00:46:54;;;;;;;16.98;8.15;;;;;;;22.09;100.00;99634.97;5112801;28;20472;-72
2022/08/20 00:49:26;;;;;;;16.88;8.70;;;;;;;22.14;100.00;99619.84;5113119;28;20058;-73
2022/08/20 00:52:00;;;;;;;13.07;9.02;;;;;;;22.08;100.00;99620.56;5112788;28;20502;-73
2022/08/20 00:54:34;;;;;;;13.65;8.23;;;;;;;22.01;100.00;99616.88;5094965;28;20060;-73
2022/08/20 00:57:07;;;;;;;14.50;8.00;;;;;;;21.95;100.00;99609.44;5112985;28;20396;-74
2022/08/20 00:59:38;;;;;;;16.83;8.50;;;;;;;22.01;100.00;99608.72;5113098;28;20043;-72
2022/08/20 01:02:11;;;;;;;14.13;8.90;;;;;;;22.05;100.00;99595.63;5112653;28;20085;-73
2022/08/20 01:04:42;;;;;;;13.80;8.45;;;;;;;21.97;100.00;99585.66;5112788;28;20048;-74
2022/08/20 01:07:10;;;;;;;15.82;9.32;;;;;;;21.92;100.00;99583.50;5112522;28;20134;-73
2022/08/20 01:09:40;;;;;;;16.67;9.38;;;;;;;21.91;100.00;99580.97;5112868;28;20051;-75
2022/08/20 01:12:27;;;;;;;13.70;8.68;;;;;;;21.82;100.00;99577.47;5112740;28;20130;-74
2022/08/20 01:14:57;;;;;;;16.15;8.73;;;;;;;21.85;100.00;99543.69;5112411;28;20055;-75
2022/08/20 01:17:31;;;;;;;16.20;9.10;;;;;;;21.92;100.00;99555.50;5112885;28;20096;-77
2022/08/20 01:20:04;;;;;;;16.00;9.07;;;;;;;21.81;100.00;99536.91;5112383;28;20058;-75
2022/08/20 01:25:41;;;;;;;13.20;8.68;;;;;;;21.81;100.00;99526.03;5112604;28;20049;-75
2022/08/20 01:28:11;;;;;;;16.83;9.43;;;;;;;21.84;100.00;99523.00;5112318;28;20058;-73
2022/08/20 01:30:39;;;;;;;12.15;8.70;;;;;;;21.87;100.00;99525.34;5112865;28;20122;-72
2022/08/20 01:33:08;;;;;;;14.23;8.32;;;;;;;21.82;100.00;99517.75;5112526;28;20095;-74
2022/08/20 01:35:38;;;;;;;14.90;8.02;;;;;;;21.91;100.00;99513.09;5112719;28;20042;-73
2022/08/20 01:38:08;;;;;;;12.93;8.35;;;;;;;21.80;100.00;99513.50;5112181;28;20449;-75
2022/08/20 01:40:51;;;;;;;16.13;9.00;;;;;;;21.63;100.00;99500.09;5112585;28;20488;-74
2022/08/20 01:43:19;;;;;;;;;;;;;;;21.77;100.00;99498.44;5112708;28;20040;-73
2022/08/20 01:45:51;;;;;;;17.42;8.23;;;;;;;21.76;100.00;99502.19;5112447;28;19930;-73
2022/08/20 01:48:21;;;;;;;17.77;8.95;;;;;;;21.65;100.00;99508.88;5112027;28;20111;-73
2022/08/20 01:50:55;;;;;;;11.68;7.65;;;;;;;21.77;100.00;99508.44;5112457;28;20039;-74
2022/08/20 01:53:28;;;;;;;12.20;8.15;;;;;;;21.58;100.00;99504.34;5112153;28;20047;-73
2022/08/20 01:55:58;;;;;;;16.52;7.60;;;;;;;21.48;100.00;99518.16;5111903;28;20044;-75
2022/08/20 01:58:28;;;;;;;17.52;7.78;;;;;;;21.41;100.00;99534.31;5112191;28;20046;-74
2022/08/20 02:00:57;;;;;;;17.13;8.18;;;;;;;21.41;100.00;99547.03;5111889;28;20153;-77
2022/08/20 02:03:25;;;;;;;15.27;8.93;;;;;;;21.39;100.00;99558.06;5112184;28;20082;-74
2022/08/20 02:05:53;;;;;;;16.70;8.30;;;;;;;21.40;100.00;99561.63;5093990;28;20134;-77
2022/08/20 02:08:22;;;;;;;12.55;7.78;;;;;;;21.38;100.00;99561.78;5112223;28;20490;-75
2022/08/20 02:10:50;;;;;;;18.27;8.52;;;;;;;21.56;100.00;99552.53;5111886;28;20138;-75
2022/08/20 02:13:20;;;;;;;14.32;7.68;;;;;;;21.77;100.00;99554.59;5093448;28;20090;-76
2022/08/20 02:15:48;;;;;;;15.07;7.65;;;;;;;21.68;100.00;99549.22;5112135;28;20044;-76
2022/08/20 02:18:17;;;;;;;13.02;7.80;;;;;;;21.68;100.00;99546.50;5112215;28;20100;-76
2022/08/20 02:20:46;;;;;;;16.33;7.53;;;;;;;21.65;100.00;99537.91;5112118;28;20059;-76
2022/08/20 02:23:15;;;;;;;13.48;7.18;;;;;;;21.61;100.00;99547.41;5111822;28;20035;-76
2022/08/20 02:25:47;;;;;;;14.02;7.55;;;;;;;21.54;100.00;99550.00;5112321;28;20047;-76
2022/08/20 02:28:18;;;;;;;14.10;7.55;;;;;;;21.54;100.00;99550.00;5112214;28;20050;-77
2022/08/20 02:30:51;;;;;;;15.25;7.18;;;;;;;21.51;100.00;99557.66;5112151;28;20066;-76
2022/08/20 02:33:21;;;;;;;11.82;7.10;;;;;;;21.48;100.00;99563.44;5111690;28;20051;-75
2022/08/20 02:35:55;;;;;;;12.30;6.83;;;;;;;21.35;100.00;99573.00;5111986;28;20031;-75
2022/08/20 02:38:24;;;;;;;12.00;7.37;;;;;;;21.35;100.00;99580.31;5111656;28;20069;-75
2022/08/20 02:40:52;;;;;;;13.82;6.97;;;;;;;21.28;100.00;99582.03;5111798;28;20180;-74
2022/08/20 02:43:20;;;;;;;13.73;7.78;;;;;;;21.17;100.00;99574.25;5111550;28;20040;-74
2022/08/20 02:45:50;;;;;;;13.18;7.68;;;;;;;21.32;100.00;99576.06;5111769;28;20051;-74
2022/08/20 02:48:21;;;;;;;17.00;7.93;;;;;;;21.24;100.00;99578.81;5111535;28;20381;-74
2022/08/20 02:50:52;;;;;;;15.73;7.53;;;;;;;21.19;100.00;99569.50;5113555;27;20040;-75
2022/08/20 02:53:21;;;;;;;12.48;7.03;;;;;;;21.21;100.00;99591.84;5115671;28;20071;-76
2022/08/20 02:55:49;;;;;;;14.95;8.15;;;;;;;21.15;100.00;99588.84;5115239;28;20050;-74
2022/08/20 02:58:18;;;;;;;17.27;7.88;;;;;;;21.06;100.00;99579.06;5115325;28;20086;-76
2022/08/20 03:00:47;;;;;;;17.65;7.72;;;;;;;21.02;100.00;99579.56;5115332;28;20499;-74
2022/08/20 03:03:21;;;;;;;14.48;7.30;;;;;;;21.01;100.00;99572.44;5114764;28;20039;-74
2022/08/20 03:05:52;;;;;;;15.98;8.27;;;;;;;21.05;100.00;99574.66;5115433;28;20047;-75
2022/08/20 03:08:20;;;;;;;11.65;7.28;;;;;;;21.10;100.00;99588.50;5114985;28;20047;-74
2022/08/20 03:10:50;;;;;;;14.07;8.15;;;;;;;21.18;100.00;99600.34;5114984;28;20138;-76
2022/08/20 03:13:20;;;;;;;12.30;7.40;;;;;;;21.34;100.00;99600.31;5114802;28;20047;-74
2022/08/20 03:15:50;;;;;;;16.15;7.95;;;;;;;21.46;100.00;99614.31;5114744;28;20067;-75
2022/08/20 03:18:43;;;;;;;14.38;8.32;;;;;;;21.37;100.00;99625.22;5114671;28;20115;-75
2022/08/20 03:21:12;;;;;;;16.15;7.93;;;;;;;21.35;100.00;99634.56;5114581;28;20039;-75
2022/08/20 03:23:42;;;;;;;13.27;8.02;;;;;;;21.22;100.00;99639.66;5114926;28;20438;-73
2022/08/20 03:26:13;;;;;;;18.60;9.13;;;;;;;21.25;100.00;99642.03;5095851;28;20048;-73
2022/08/20 03:28:42;;;;;;;15.70;9.55;;;;;;;21.33;100.00;99647.47;5115151;28;20211;-75
2022/08/20 03:31:11;;;;;;;13.98;8.80;;;;;;;21.41;100.00;99641.97;5114234;28;20421;-77
2022/08/20 03:33:43;;;;;;;17.73;9.88;;;;;;;21.32;100.00;99635.72;5114848;28;20102;-75
2022/08/20 03:36:21;;;;;;;14.43;9.32;;;;;;;21.10;100.00;99621.06;5114238;28;20118;-74
2022/08/20 03:38:56;;;;;;;18.02;9.82;;;;;;;20.92;100.00;99641.28;5114515;28;20039;-74
2022/08/20 03:41:25;;;;;;;15.27;9.57;;;;;;;20.81;100.00;99647.91;5095929;28;20047;-73
2022/08/20 03:43:53;;;;;;;18.50;9.55;;;;;;;20.86;100.00;99640.13;5114478;28;20104;-73
2022/08/20 03:46:21;;;;;;;17.42;9.80;;;;;;;21.15;100.00;99629.53;5114311;28;20093;-73
2022/08/20 03:48:52;;;;;;;16.15;9.90;;;;;;;21.15;100.00;99640.38;5095905;28;20511;-73
2022/08/20 03:51:28;;;;;;;16.63;9.43;;;;;;;21.03;100.00;99643.59;5114041;28;20138;-75
2022/08/20 03:53:56;;;;;;;16.25;9.30;;;;;;;21.06;100.00;99646.00;5114463;28;20039;-75
2022/08/20 03:56:25;;;;;;;15.73;8.82;;;;;;;21.03;100.00;99657.16;5113798;28;20040;-74
2022/08/20 03:58:53;;;;;;;15.75;9.07;;;;;;;21.17;100.00;99647.47;5114204;28;20179;-73
2022/08/20 04:01:21;;;;;;;12.23;8.80;;;;;;;21.31;100.00;99636.75;5113685;28;20047;-73
2022/08/20 04:04:11;;;;;;;15.88;8.88;;;;;;;21.33;100.00;99637.44;5114015;28;20040;-74
2022/08/20 04:06:39;;;;;;;17.75;9.45;;;;;;;21.44;100.00;99655.22;5114066;28;20047;-74
2022/08/20 04:09:08;;;;;;;15.55;9.50;;;;;;;21.32;100.00;99656.59;5113763;28;20071;-73
2022/08/20 04:11:39;;;;;;;15.50;9.00;;;;;;;21.34;100.00;99649.16;5114150;28;20548;-74
2022/08/20 04:14:08;;;;;;;21.25;8.85;;;;;;;21.44;100.00;99633.50;5113578;28;20440;-73
2022/08/20 04:16:39;;;;;;;15.98;8.43;;;;;;;21.41;100.00;99636.53;5114128;28;20047;-74
2022/08/20 04:19:07;;;;;;;13.68;8.18;;;;;;;21.42;100.00;99640.94;5095354;28;20138;-72
2022/08/20 04:21:36;;;;;;;14.77;8.23;;;;;;;21.45;100.00;99654.19;5113715;28;20047;-73
2022/08/20 04:24:05;;;;;;;16.98;9.18;;;;;;;21.49;100.00;99649.22;5113759;28;20476;-73
2022/08/20 04:26:36;;;;;;;11.68;7.97;;;;;;;21.83;100.00;99622.59;5113811;28;20056;-73
2022/08/20 04:29:04;;;;;;;14.30;8.50;;;;;;;21.65;100.00;99600.31;5113621;28;20048;-72
2022/08/20 04:31:33;;;;;;;14.23;9.40;;;;;;;21.48;100.00;99596.84;5113775;28;20046;-71
2022/08/20 04:34:01;;;;;;;16.42;8.63;;;;;;;21.50;100.00;99578.50;5113629;28;20108;-72
2022/08/20 04:36:30;;;;;;;15.35;8.98;;;;;;;21.47;100.00;99589.72;5113068;28;20043;-74
2022/08/20 04:39:00;;;;;;;14.70;9.25;;;;;;;21.40;100.00;99610.44;5113195;28;20051;-73
2022/08/20 04:41:28;;;;;;;16.52;8.60;;;;;;;21.45;100.00;99628.91;5112792;28;20049;-71
2022/08/20 04:43:57;;;;;;;15.45;8.93;;;;;;;21.35;100.00;99623.72;5113135;28;20429;-74
2022/08/20 04:46:27;;;;;;;16.42;8.98;;;;;;;21.38;100.00;99629.63;5113145;28;20048;-73
2022/08/20 04:48:56;;;;;;;14.65;8.50;;;;;;;21.56;100.00;99623.09;5113160;28;20472;-73
2022/08/20 04:51:24;;;;;;;12.93;7.82;;;;;;;21.67;100.00;99626.25;5112866;28;20043;-73
2022/08/20 04:53:55;;;;;;;14.73;8.00;;;;;;;21.77;100.00;99615.16;5113127;28;20072;-74
2022/08/20 04:56:27;;;;;;;15.60;8.23;;;;;;;21.77;100.00;99611.59;5112625;28;20480;-74
2022/08/20 04:58:59;;;;;;;14.82;8.23;;;;;;;21.55;100.00;99608.69;5113348;28;20074;-74
2022/08/20 05:01:28;;;;;;;16.52;8.80;;;;;;;21.57;100.00;99622.06;5112678;28;20100;-74
2022/08/20 05:03:57;;;;;;;13.88;8.23;;;;;;;21.74;100.00;99614.69;5112823;28;20062;-73
2022/08/20 05:06:29;;;;;;;15.63;8.48;;;;;;;21.69;100.00;99618.75;5112516;28;20043;-74
2022/08/20 05:08:58;;;;;;;15.65;8.43;;;;;;;21.65;100.00;99628.28;5113156;28;20100;-76
2022/08/20 05:11:29;;;;;;;18.92;8.23;;;;;;;21.71;100.00;99619.44;5112784;28;20111;-76
2022/08/20 05:14:02;;;;;;;11.38;7.82;;;;;;;21.78;100.00;99624.13;5112348;28;20495;-76
2022/08/20 05:16:36;;;;;;;15.25;8.95;;;;;;;21.74;100.00;99630.97;5112399;28;20043;-75
2022/08/20 05:19:05;;;;;;;19.13;8.50;;;;;;;21.71;100.00;99630.31;5094697;28;20134;-75
2022/08/20 05:21:34;;;;;;;16.15;8.77;;;;;;;21.64;100.00;99637.47;5112844;28;20146;-77
2022/08/20 05:24:03;;;;;;;14.15;8.38;;;;;;;21.80;100.00;99622.94;5112513;28;20044;-84
2022/08/20 05:26:33;;;;;;;14.50;7.80;;;;;;;21.89;100.00;99615.56;5112512;28;20056;-80
2022/08/20 05:29:03;;;;;;;14.15;8.63;;;;;;;21.94;100.00;99619.44;5112694;28;20048;-79
2022/08/20 05:31:33;;;;;;;15.05;8.00;;;;;;;21.99;100.00;99613.47;5112692;28;20071;-79
2022/08/20 05:34:02;;;;;;;14.25;8.32;;;;;;;22.30;100.00;99604.44;5112555;28;20067;-80
2022/08/20 05:36:30;;;;;;;11.43;7.90;;;;;;;22.64;100.00;99603.94;5112369;28;20053;-74
2022/08/20 05:38:59;;;;;;;15.50;7.85;;;;;;;22.96;100.00;99608.19;5112366;28;20059;-74
2022/08/20 05:41:28;;;;;;;13.40;7.18;;;;;;;23.12;100.00;99613.47;5112251;28;20241;-75
2022/08/20 05:44:00;;;;;;;14.70;6.97;;;;;;;23.22;100.00;99615.88;5112763;28;20487;-77
2022/08/20 05:46:29;;;;;;;11.05;6.35;;;;;;;22.97;100.00;99626.19;5112650;28;20372;-75
2022/08/20 05:49:00;;;;;;;13.73;6.75;;;;;;;22.89;100.00;99627.16;5112605;28;20043;-76
2022/08/20 05:51:29;;;;;;;14.02;6.63;;;;;;;22.90;100.00;99625.28;5112451;28;20046;-77
2022/08/20 05:53:58;;;;;;;11.80;6.63;;;;;;;22.91;100.00;99624.25;5112309;28;20485;-78
2022/08/20 05:56:29;;;;;;;13.85;7.22;;;;;;;22.89;100.00;99621.72;5111880;28;20054;-75
2022/08/20 05:59:02;;;;;;;11.73;7.18;;;;;;;22.81;100.00;99617.19;5094258;28;20130;-79
2022/08/20 06:01:31;;;;;;;12.38;7.63;;;;;;;22.52;100.00;99614.41;5112269;28;20363;-76
2022/08/20 06:06:46;;;;;;;11.10;6.82;;;;;;;22.71;100.00;99613.88;5112478;28;20062;-77
2022/08/20 06:09:16;;;;;;;14.18;7.63;;;;;;;22.93;100.00;99624.91;5094072;28;20040;-77
2022/08/20 06:12:01;;;;;;;15.90;6.82;;;;;;;23.18;100.00;99629.03;5112686;28;20440;-76
2022/08/20 06:14:31;;;;;;;11.75;6.35;;;;;;;23.33;100.00;99624.41;5111988;28;20123;-76
2022/08/20 06:17:04;;;;;;;14.18;6.60;;;;;;;23.66;100.00;99615.84;5112307;28;20058;-78
2022/08/20 06:19:34;;;;;;;17.38;6.70;;;;;;;23.92;100.00;99615.28;5112281;28;20047;-83
2022/08/20 06:22:04;;;;;;;13.52;6.90;;;;;;;25.49;100.00;99619.44;5094323;28;20047;-77
2022/08/20 06:24:46;;;;;;;14.57;6.53;;;;;;;26.06;100.00;99609.13;5112754;28;20105;-75
2022/08/20 06:27:16;;;;;;;14.27;6.63;;;;;;;26.51;100.00;99612.94;5116248;28;20100;-78
2022/08/20 06:29:46;;;;;;;11.07;6.15;;;;;;;26.50;100.00;99614.00;5116196;28;20047;-77
2022/08/20 06:32:15;;;;;;;14.80;5.68;;;;;;;26.01;100.00;99617.91;5116143;28;20040;-77
2022/08/20 06:34:43;;;;;;;12.75;5.68;;;;;;;25.49;100.00;99638.53;5116027;28;20051;-77
2022/08/20 06:37:19;;;;;;;11.07;6.40;;;;;;;25.02;100.00;99629.28;5116018;28;20035;-75
2022/08/20 06:39:48;;;;;;;16.20;6.22;;;;;;;24.63;100.00;99640.72;5115791;28;20114;-75
2022/08/20 06:42:16;;;;;;;15.18;6.85;;;;;;;24.39;100.00;99641.97;5115593;28;20046;-76
2022/08/20 06:44:50;;;;;;;12.18;6.35;;;;;;;24.20;100.00;99637.16;5115861;28;20061;-77
2022/08/20 06:47:19;;;;;;;12.57;6.45;;;;;;;24.22;100.00;99632.34;5115635;28;20048;-78
2022/08/20 06:49:48;;;;;;;13.15;6.57;;;;;;;24.11;100.00;99620.09;5115783;28;20035;-77
2022/08/20 06:52:16;;;;;;;12.25;6.28;;;;;;;23.80;100.00;99622.28;5096955;28;20135;-77
2022/08/20 06:54:45;;;;;;;12.38;6.63;;;;;;;23.88;100.00;99636.63;5097409;28;20047;-76
2022/08/20 06:57:16;;;;;;;14.02;6.35;;;;;;;23.80;100.00;99647.63;5115481;28;20114;-76
2022/08/20 06:59:44;;;;;;;13.57;6.28;;;;;;;23.97;100.00;99645.50;5115576;28;20484;-76
2022/08/20 07:02:23;;;;;;;14.80;6.03;;;;;;;24.07;100.00;99653.38;5115616;28;20047;-76
2022/08/20 07:04:58;;;;;;;13.25;6.32;;;;;;;24.19;100.00;99665.44;5115366;28;20051;-77
2022/08/20 07:07:26;;;;;;;11.80;6.28;;;;;;;24.25;100.00;99665.50;5096772;28;20043;-74
2022/08/20 07:09:59;;;;;;;12.57;6.15;;;;;;;23.98;100.00;99669.00;5115154;28;20047;-73
2022/08/20 07:12:28;;;;;;;13.85;5.88;;;;;;;23.70;100.00;99688.78;5114931;28;20476;-73
2022/08/20 07:14:56;;;;;;;13.07;5.90;;;;;;;23.84;100.00;99684.34;5115048;28;20122;-75
2022/08/20 07:17:25;;;;;;;10.55;5.50;;;;;;;23.87;100.00;99694.84;5114665;28;20122;-74
2022/08/20 07:19:54;;;;;;;11.98;6.13;;;;;;;23.85;100.00;99694.22;5096385;28;20490;-75
2022/08/20 07:22:23;;;;;;;13.85;6.20;;;;;;;23.90;100.00;99696.34;5114539;28;20420;-75
2022/08/20 07:24:52;;;;;;;15.63;6.72;;;;;;;23.97;100.00;99687.22;5115002;28;20480;-76
2022/08/20 07:27:22;;;;;;;11.68;5.20;;;;;;;23.79;100.00;99688.66;5114402;28;20051;-74
2022/08/20 07:32:44;;;;;;;9.77;4.65;;;;;;;24.28;100.00;99696.97;5119938;28;20054;-76
2022/08/20 07:35:16;;;;;;;9.70;4.65;;;;;;;24.13;100.00;99693.47;5115140;28;20044;-76
2022/08/20 07:37:47;;;;;;;10.20;4.47;;;;;;;24.19;100.00;99709.88;5095885;28;20153;-75
2022/08/20 07:40:18;;;;;;;11.18;4.65;;;;;;;24.11;100.00;99714.59;5114832;28;20044;-74
2022/08/20 07:42:53;;;;;;;13.65;5.10;;;;;;;24.08;100.00;99723.16;5114805;28;20434;-74
2022/08/20 07:45:21;;;;;;;9.23;5.60;;;;;;;23.95;100.00;99724.69;5095849;28;20048;-74
2022/08/20 07:47:52;;;;;;;13.25;5.45;;;;;;;23.92;100.00;99727.78;5096033;28;20159;-76
2022/08/20 07:50:23;;;;;;;13.75;5.28;;;;;;;23.87;100.00;99743.03;5114097;28;20044;-75
2022/08/20 07:52:52;;;;;;;14.43;5.22;;;;;;;23.79;100.00;99764.91;5114514;28;20058;-74
2022/08/20 07:55:21;;;;;;;13.10;5.72;;;;;;;23.79;100.00;99779.38;5095765;28;20055;-74
2022/08/20 07:57:50;;;;;;;13.70;4.75;;;;;;;23.83;100.00;99794.28;5095742;28;20525;-74
2022/08/20 08:00:21;;;;;;;11.32;4.07;;;;;;;23.75;100.00;99799.84;5095598;28;20135;-77
2022/08/20 08:02:50;;;;;;;11.43;4.70;;;;;;;23.66;100.00;99817.31;5095804;28;20089;-77
2022/08/20 08:05:19;;;;;;;15.88;5.63;;;;;;;23.12;100.00;99847.41;5095648;28;20044;-76
2022/08/20 08:07:47;;;;;;;15.05;6.07;;;;;;;22.84;100.00;99866.97;5114315;28;20044;-72
2022/08/20 08:10:19;;;;;;;17.80;6.53;;;;;;;22.70;100.00;99873.19;5114180;28;20143;-76
2022/08/20 08:12:52;;;;;;;16.15;6.40;;;;;;;22.57;100.00;99881.03;5114333;28;20039;-74
2022/08/20 08:15:23;;;;;;;19.33;7.30;;;;;;;22.35;100.00;99885.41;5114397;28;20046;-79
2022/08/20 08:17:56;;;;;;;19.23;7.00;;;;;;;22.23;100.00;99890.41;5096148;28;20851;-79
2022/08/20 08:20:24;;;;;;;16.58;7.00;;;;;;;22.05;100.00;99884.31;5095744;28;20499;-80
2022/08/20 08:22:53;;;;;;;18.20;6.55;;;;;;;21.93;100.00;99893.88;5095973;28;20081;-83
2022/08/20 08:25:21;;;;;;;13.70;6.38;;;;;;;21.82;100.00;99883.38;5095439;28;20054;-84
2022/08/20 08:27:49;;;;;;;13.50;5.57;;;;;;;21.83;100.00;99863.34;5114103;28;20446;-85
2022/08/20 08:30:18;;;;;;;11.20;5.07;;;;;;;21.55;100.00;99852.06;5095290;28;20504;-80
2022/08/20 08:35:33;;;;;;;14.95;5.15;;;;;;;21.46;100.00;99840.38;5112308;28;20070;-84
2022/08/20 08:38:01;;;;;;;13.25;5.90;;;;;;;21.47;100.00;99838.50;5095165;28;20044;-78
2022/08/20 08:40:31;;;;;;;11.35;5.68;;;;;;;21.44;100.00;99842.41;5094937;28;20048;-76
2022/08/20 08:43:03;;;;;;;16.42;5.93;;;;;;;21.40;100.00;99849.19;5113170;28;20036;-75
2022/08/20 08:45:40;;;;;;;17.85;6.03;;;;;;;21.35;100.00;99841.56;5113682;28;20050;-77
2022/08/20 08:48:10;;;;;;;13.38;5.72;;;;;;;21.42;100.00;99833.56;5112272;28;20114;-78
2022/08/20 08:50:51;;;;;;;13.70;5.97;;;;;;;21.39;100.00;99825.78;5113570;28;20043;-75
2022/08/20 08:53:26;;;;;;;14.73;6.22;;;;;;;21.48;100.00;99819.31;5094735;28;20048;-77
2022/08/20 08:55:54;;;;;;;13.52;5.72;;;;;;;21.44;100.00;99815.28;5113513;28;20546;-80
2022/08/20 08:58:23;;;;;;;13.23;5.50;;;;;;;21.49;100.00;99810.16;5094878;28;20120;-76
2022/08/20 09:00:52;;;;;;;13.80;5.97;;;;;;;21.50;100.00;99795.56;5112216;28;20413;-86
2022/08/20 09:03:28;;;;;;;14.85;6.18;;;;;;;21.73;100.00;99795.69;5094708;28;20048;-77
2022/08/20 09:06:00;;;;;;;15.73;5.82;;;;;;;21.34;100.00;99801.06;5094956;28;20063;-77
2022/08/20 09:08:33;;;;;;;15.38;6.05;;;;;;;21.04;100.00;99806.16;5113306;28;20055;-74
2022/08/20 09:11:03;;;;;;;17.00;7.38;;;;;;;21.15;100.00;99824.78;5094699;28;20075;-74
2022/08/20 09:13:31;;;;;;;19.30;7.70;;;;;;;21.29;100.00;99839.53;5094684;28;20047;-74
2022/08/20 09:16:00;;;;;;;15.98;7.88;;;;;;;21.41;100.00;99857.13;5112912;28;20043;-77
2022/08/20 09:18:28;;;;;;;15.93;7.03;;;;;;;21.43;100.00;99884.13;5112484;28;20086;-81
2022/08/20 09:20:58;;;;;;;16.42;7.25;;;;;;;21.35;100.00;99922.09;5094925;28;20043;-79
2022/08/20 09:23:26;;;;;;;14.82;7.00;;;;;;;21.15;100.00;99932.41;5113267;28;20048;-80
2022/08/20 09:25:54;;;;;;;15.57;6.80;;;;;;;21.04;100.00;99930.88;5094646;28;20039;-87
2022/08/20 09:28:22;;;;;;;14.18;6.47;;;;;;;20.98;100.00;99903.56;5112818;28;20132;-76
2022/08/20 09:30:51;;;;;;;14.93;7.13;;;;;;;20.89;100.00;99877.47;5094343;28;20048;-75
2022/08/20 09:33:20;;;;;;;13.27;6.93;;;;;;;20.79;100.00;99874.91;5090871;28;20048;-72
2022/08/20 09:35:48;;;;;;;17.98;7.63;;;;;;;20.84;100.00;99864.41;5080447;28;20067;-72
2022/08/20 09:38:17;;;;;;;13.88;6.80;;;;;;;21.07;100.00;99870.88;5103244;28;20416;-74
2022/08/20 09:40:46;;;;;;;14.82;6.82;;;;;;;20.58;100.00;99865.38;5101055;28;20050;-69
2022/08/20 09:43:14;;;;;;;12.52;6.57;;;;;;;20.41;100.00;99841.09;5074029;28;20052;-69
2022/08/20 09:45:42;;;;;;;16.15;7.20;;;;;;;20.43;100.00;99829.09;5091535;28;20121;-69
2022/08/20 09:48:10;;;;;;;14.95;7.03;;;;;;;20.30;100.00;99818.72;5092072;28;20548;-69
2022/08/20 09:50:44;;;;;;;13.07;7.35;;;;;;;20.34;100.00;99808.38;5073922;28;20284;-72
2022/08/20 09:53:13;;;;;;;16.38;7.85;;;;;;;20.27;100.00;99785.72;5074096;28;20492;-71
2022/08/20 09:55:45;;;;;;;12.18;7.15;;;;;;;20.21;100.00;99753.88;5092333;28;20036;-73
2022/08/20 09:58:21;;;;;;;16.10;7.78;;;;;;;20.33;100.00;99735.44;5091853;28;20044;-71
2022/08/20 10:00:49;;;;;;;15.52;7.22;;;;;;;20.33;100.00;99720.03;5095812;28;20043;-72
2022/08/20 10:03:17;;;;;;;14.02;6.53;;;;;;;20.27;100.00;99726.13;5111265;28;20105;-71
2022/08/20 10:05:46;;;;;;;16.00;7.15;;;;;;;20.27;100.00;99729.69;5115412;28;20385;-73
2022/08/20 10:08:14;;;;;;;14.23;6.63;;;;;;;20.27;100.00;99723.44;5097424;28;20097;-72
2022/08/20 10:10:44;;;;;;;14.52;6.20;;;;;;;20.26;100.00;99708.16;5097928;28;20054;-74
2022/08/20 10:13:12;;;;;;;12.65;6.60;;;;;;;20.26;100.00;99692.75;5116768;28;20036;-76
2022/08/20 10:15:42;;;;;;;11.93;6.93;;;;;;;20.31;100.00;99700.41;5116728;28;20368;-71
2022/08/20 10:18:11;;;;;;;15.77;8.30;;;;;;;20.37;100.00;99707.88;5115993;28;20043;-71
2022/08/20 10:20:40;;;;;;;14.48;8.43;;;;;;;20.76;100.00;99699.94;5128085;28;20070;-75
2022/08/20 10:23:09;;;;;;;14.23;7.10;;;;;;;21.13;100.00;99695.78;5130349;28;20074;-78
2022/08/20 10:25:38;;;;;;;11.48;5.85;;;;;;;21.08;100.00;99699.03;5117508;28;20101;-75
2022/08/20 10:28:07;;;;;;;12.25;6.13;;;;;;;21.24;100.00;99706.28;5116233;28;20055;-76
2022/08/20 10:30:36;;;;;;;15.77;6.32;;;;;;;21.14;100.00;99717.31;5116139;28;20043;-70
2022/08/20 10:33:04;;;;;;;13.30;6.20;;;;;;;21.01;100.00;99721.56;5116065;28;20048;-70
2022/08/20 10:35:32;;;;;;;11.55;6.00;;;;;;;21.27;100.00;99729.53;5080768;28;20055;-71
2022/08/20 10:38:00;;;;;;;12.60;6.25;;;;;;;21.30;100.00;99750.88;5095775;28;20089;-72
2022/08/20 10:40:28;;;;;;;12.20;6.47;;;;;;;21.15;100.00;99748.00;5095494;28;20075;-70
2022/08/20 10:42:57;;;;;;;12.05;6.60;;;;;;;20.97;100.00;99750.91;5077063;28;20044;-71
2022/08/20 10:45:26;;;;;;;11.18;6.22;;;;;;;21.05;100.00;99742.75;5095308;28;20070;-71
2022/08/20 10:47:54;;;;;;;17.00;6.57;;;;;;;20.98;100.00;99746.31;5095107;28;20040;-70
2022/08/20 10:50:23;;;;;;;13.20;5.80;;;;;;;20.87;100.00;99752.94;5094793;28;20422;-71
2022/08/20 10:52:57;;;;;;;10.55;5.80;;;;;;;20.76;100.00;99748.72;5095519;28;20477;-71
2022/08/20 10:55:25;;;;;;;13.25;6.25;;;;;;;20.84;100.00;99756.84;5076820;28;20105;-71
2022/08/20 10:57:53;;;;;;;10.50;5.60;;;;;;;20.90;100.00;99757.16;5103970;28;20480;-72
2022/08/20 11:00:21;;;;;;;9.85;5.65;;;;;;;21.04;100.00;99783.59;5114997;28;20039;-74
2022/08/20 11:02:51;;;;;;;9.48;5.82;;;;;;;21.08;100.00;99790.38;5093299;28;20493;-73
2022/08/20 11:05:19;;;;;;;14.27;5.50;;;;;;;21.09;100.00;99795.63;5095229;28;20047;-73
2022/08/20 11:07:47;;;;;;;11.35;5.70;;;;;;;21.22;100.00;99789.66;5076320;28;20044;-70
2022/08/20 11:10:29;;;;;;;10.38;5.18;;;;;;;21.22;100.00;99781.53;5084564;28;20048;-74
2022/08/20 11:12:57;;;;;;;13.77;6.53;;;;;;;21.40;100.00;99786.78;5094715;28;20099;-80
2022/08/20 11:15:27;;;;;;;11.10;5.65;;;;;;;21.45;100.00;99770.00;5076903;28;20550;-82
2022/08/20 11:17:56;;;;;;;13.43;5.35;;;;;;;21.51;100.00;99763.84;5086173;28;20055;-82
2022/08/20 11:20:26;;;;;;;11.57;5.47;;;;;;;21.71;100.00;99782.31;5097769;28;20062;-81
2022/08/20 11:22:55;;;;;;;13.32;5.82;;;;;;;22.03;100.00;99761.44;5115691;28;20051;-79
2022/08/20 11:25:23;;;;;;;11.35;5.65;;;;;;;22.08;100.00;99769.94;5114657;28;20130;-77
2022/08/20 11:27:54;;;;;;;10.10;5.03;;;;;;;22.24;100.00;99771.72;5093005;28;20048;-81
2022/08/20 11:30:25;;;;;;;11.55;4.80;;;;;;;22.08;100.00;99764.50;5093604;28;20048;-78
2022/08/20 11:32:53;;;;;;;10.27;5.25;;;;;;;22.22;100.00;99782.75;5094224;28;20044;-78
2022/08/20 11:35:23;;;;;;;10.95;4.80;;;;;;;22.06;100.00;99769.22;5092693;28;20060;-81
2022/08/20 11:38:12;;;;;;;8.38;4.85;;;;;;;22.35;100.00;99762.31;5094302;28;20476;-76
2022/08/20 11:40:40;;;;;;;12.05;5.50;;;;;;;22.25;100.00;99773.41;5094276;28;20055;-70
2022/08/20 11:43:08;;;;;;;11.90;5.28;;;;;;;22.43;100.00;99764.97;5094899;28;20488;-76